Time;durP1;ratioP1;P1;durP2;ratioP2;P2;SDS_P1;SDS_P2;PMS_P1;PMS_P2;Temp;Humidity;BMP_temperature;BMP_pressure;BME280_temperature;BME280_humidity;BME280_pressure;Samples;Min_cycle;Max_cycle;Signal;HPM_P1;HPM_P2
2022/03/03 00:01:42;;;;;;;67.32;33.38;;;1.00;99.90;;;;;;4925789;29;20051;-92
2022/03/03 00:04:08;;;;;;;71.10;34.70;;;1.20;99.90;;;;;;4941716;29;20051;-93
2022/03/03 00:06:35;;;;;;;67.40;33.97;;;1.00;99.90;;;;;;4925883;29;20074;-93
2022/03/03 00:09:02;;;;;;;67.95;32.47;;;1.10;99.90;;;;;;4925230;29;20522;-92
2022/03/03 00:11:27;;;;;;;68.53;33.97;;;1.10;99.90;;;;;;4941567;29;20047;-92
2022/03/03 00:13:53;;;;;;;71.95;33.22;;;1.10;99.90;;;;;;4925591;29;20055;-92
2022/03/03 00:16:19;;;;;;;67.88;33.85;;;1.00;99.90;;;;;;4925951;29;20395;-93
2022/03/03 00:18:44;;;;;;;66.38;32.55;;;1.40;99.90;;;;;;4941344;29;20079;-92
2022/03/03 00:21:10;;;;;;;71.40;31.83;;;1.00;99.90;;;;;;4941203;29;20051;-92
2022/03/03 00:23:36;;;;;;;69.30;34.33;;;1.10;99.90;;;;;;4940856;29;20491;-93
2022/03/03 00:26:02;;;;;;;69.75;33.15;;;1.00;99.90;;;;;;4925505;29;20141;-93
2022/03/03 00:28:28;;;;;;;72.10;34.05;;;0.70;99.90;;;;;;4941144;29;20308;-93
2022/03/03 00:30:54;;;;;;;67.30;33.97;;;0.90;99.90;;;;;;4941373;29;20498;-93
2022/03/03 00:33:20;;;;;;;69.68;34.15;;;1.40;99.90;;;;;;4941025;29;20509;-92
2022/03/03 00:35:45;;;;;;;67.07;33.42;;;1.20;99.90;;;;;;4940578;29;20077;-92
2022/03/03 00:38:12;;;;;;;68.90;33.10;;;1.10;99.90;;;;;;4940644;29;20047;-92
2022/03/03 00:40:38;;;;;;;75.85;34.05;;;1.10;99.90;;;;;;4924944;29;20093;-92
2022/03/03 00:43:06;;;;;;;70.80;34.05;;;0.70;99.90;;;;;;4940982;29;20083;-93
2022/03/03 00:45:33;;;;;;;68.75;33.30;;;0.80;99.90;;;;;;4925155;29;20051;-92
2022/03/03 00:47:59;;;;;;;71.80;34.97;;;0.60;99.90;;;;;;4925158;29;20110;-93
2022/03/03 00:50:28;;;;;;;69.50;34.17;;;0.90;99.90;;;;;;4940931;29;20055;-93
2022/03/03 00:52:53;;;;;;;70.25;32.72;;;1.10;99.90;;;;;;4924816;29;20043;-92
2022/03/03 00:55:19;;;;;;;71.38;33.08;;;0.60;99.90;;;;;;4924847;29;20388;-93
2022/03/03 00:57:45;;;;;;;68.68;33.10;;;0.50;99.90;;;;;;4925091;29;20046;-93
2022/03/03 01:00:11;;;;;;;66.50;32.60;;;0.50;99.90;;;;;;4940746;29;20093;-93
2022/03/03 01:02:37;;;;;;;72.10;33.80;;;0.50;99.90;;;;;;4940640;29;20051;-92
2022/03/03 01:05:03;;;;;;;70.15;32.85;;;0.60;99.90;;;;;;4940014;29;20046;-92
2022/03/03 01:07:30;;;;;;;69.05;33.28;;;0.40;99.90;;;;;;4924777;29;20097;-93
2022/03/03 01:09:56;;;;;;;69.72;32.72;;;0.40;99.90;;;;;;4924441;29;20058;-93
2022/03/03 01:12:21;;;;;;;72.70;34.25;;;0.40;99.90;;;;;;4924740;29;20047;-93
2022/03/03 01:14:47;;;;;;;68.00;32.20;;;0.40;99.90;;;;;;4924428;29;20504;-93
2022/03/03 01:17:13;;;;;;;70.25;34.50;;;0.20;99.90;;;;;;4924197;29;20059;-92
2022/03/03 01:19:40;;;;;;;68.47;33.40;;;0.10;99.90;;;;;;4940134;29;20410;-93
2022/03/03 01:22:06;;;;;;;70.03;33.38;;;0.10;99.90;;;;;;4924709;29;20090;-93
2022/03/03 01:24:32;;;;;;;71.95;34.28;;;0.00;99.90;;;;;;4940136;29;20047;-92
2022/03/03 01:26:58;;;;;;;72.85;33.65;;;0.00;99.90;;;;;;4939893;28;20110;-92
2022/03/03 01:29:24;;;;;;;76.93;33.95;;;0.00;99.90;;;;;;4924768;29;20129;-93
2022/03/03 01:31:50;;;;;;;73.70;34.38;;;0.50;99.90;;;;;;4940170;29;20135;-92
2022/03/03 01:34:15;;;;;;;79.53;34.83;;;-0.10;99.90;;;;;;4923894;29;20059;-92
2022/03/03 01:36:41;;;;;;;71.72;34.15;;;-0.10;99.90;;;;;;4924190;29;20101;-93
2022/03/03 01:39:07;;;;;;;73.80;33.88;;;0.00;99.90;;;;;;4939628;29;20139;-92
2022/03/03 01:41:34;;;;;;;61.85;31.85;;;-0.10;99.90;;;;;;4924322;29;20051;-92
2022/03/03 01:43:59;;;;;;;69.68;32.65;;;-0.20;99.90;;;;;;4940142;29;20134;-92
2022/03/03 01:46:25;;;;;;;69.03;31.70;;;-0.20;99.90;;;;;;4939784;29;20138;-93
2022/03/03 01:48:51;;;;;;;72.95;33.13;;;0.00;99.90;;;;;;4939879;29;20384;-93
2022/03/03 01:51:17;;;;;;;69.82;32.10;;;-0.30;99.90;;;;;;4939486;29;20046;-93
2022/03/03 01:53:42;;;;;;;65.28;31.45;;;-0.30;99.90;;;;;;4939493;29;20083;-93
2022/03/03 01:56:08;;;;;;;65.90;31.15;;;-0.30;99.90;;;;;;4923586;29;20055;-93
2022/03/03 01:58:37;;;;;;;67.65;30.73;;;-0.30;99.90;;;;;;4939274;29;20050;-92
2022/03/03 02:01:02;;;;;;;67.57;31.88;;;-0.20;99.90;;;;;;4923736;29;20507;-92
2022/03/03 02:03:28;;;;;;;69.65;31.27;;;-0.20;99.90;;;;;;4923833;29;20062;-93
2022/03/03 02:05:54;;;;;;;69.15;32.03;;;-0.30;99.90;;;;;;4923552;29;20195;-93
2022/03/03 02:08:19;;;;;;;70.28;31.98;;;-0.30;99.90;;;;;;4939721;29;20047;-92
2022/03/03 02:10:45;;;;;;;68.35;31.67;;;-0.10;99.90;;;;;;4923006;29;20521;-93
2022/03/03 02:13:11;;;;;;;67.35;31.42;;;-0.20;99.90;;;;;;4939418;29;20541;-93
2022/03/03 02:15:37;;;;;;;63.53;29.95;;;-0.50;99.90;;;;;;4939074;29;20407;-93
2022/03/03 02:18:03;;;;;;;61.55;29.55;;;-0.60;99.90;;;;;;4923503;29;20043;-93
2022/03/03 02:20:30;;;;;;;63.40;30.77;;;-0.50;99.90;;;;;;4939055;29;20043;-93
2022/03/03 02:22:57;;;;;;;70.13;31.48;;;-0.60;99.90;;;;;;4923206;29;20138;-93
2022/03/03 02:25:24;;;;;;;62.50;29.58;;;-0.70;99.90;;;;;;4938531;29;20499;-93
2022/03/03 02:27:50;;;;;;;67.60;30.65;;;-0.80;99.90;;;;;;4938938;29;20059;-92
2022/03/03 02:30:17;;;;;;;64.05;30.58;;;-0.60;99.90;;;;;;4923614;29;20138;-93
2022/03/03 02:32:46;;;;;;;67.88;31.10;;;-0.60;99.90;;;;;;4923318;29;20047;-92
2022/03/03 02:35:12;;;;;;;66.03;30.27;;;-0.50;99.90;;;;;;4923203;29;20055;-92
2022/03/03 02:37:42;;;;;;;70.78;30.38;;;-0.90;99.90;;;;;;4938923;29;20047;-92
2022/03/03 02:40:11;;;;;;;68.28;30.55;;;-1.00;99.90;;;;;;4938543;29;20069;-92
2022/03/03 02:42:37;;;;;;;65.22;30.70;;;-1.00;99.90;;;;;;4939039;29;20039;-92
2022/03/03 02:45:04;;;;;;;63.83;30.23;;;-1.10;99.90;;;;;;4938746;29;20047;-92
2022/03/03 02:47:30;;;;;;;67.32;30.85;;;-1.10;99.90;;;;;;4923118;29;20134;-93
2022/03/03 02:49:56;;;;;;;60.15;29.30;;;-1.10;99.90;;;;;;4922884;29;20107;-92
2022/03/03 02:52:22;;;;;;;62.65;30.48;;;-1.20;99.90;;;;;;4938547;29;20086;-93
2022/03/03 02:54:48;;;;;;;66.25;30.88;;;-1.20;99.90;;;;;;4922773;29;20055;-92
2022/03/03 02:59:58;;;;;;;60.33;29.05;;;-1.20;99.90;;;;;;4939034;29;20078;-93
2022/03/03 03:02:23;;;;;;;65.35;30.10;;;-1.20;99.90;;;;;;4938600;29;20481;-92
2022/03/03 03:04:49;;;;;;;63.38;30.40;;;-1.20;99.90;;;;;;4922772;29;20626;-92
2022/03/03 03:07:15;;;;;;;59.58;29.60;;;-1.20;99.90;;;;;;4922447;29;20051;-93
2022/03/03 03:09:41;;;;;;;61.30;30.63;;;-1.20;99.90;;;;;;4938174;29;20094;-92
2022/03/03 03:12:06;;;;;;;62.17;30.42;;;-0.70;99.90;;;;;;4922988;29;20047;-93
2022/03/03 03:14:32;;;;;;;62.47;29.92;;;-1.20;99.90;;;;;;4922806;29;20047;-93
2022/03/03 03:16:58;;;;;;;61.63;28.83;;;-1.30;99.90;;;;;;4922872;29;20085;-92
2022/03/03 03:19:24;;;;;;;65.53;31.00;;;-1.30;99.90;;;;;;4922506;29;20039;-92
2022/03/03 03:21:49;;;;;;;67.25;29.45;;;-1.30;99.90;;;;;;4921937;29;20087;-93
2022/03/03 03:24:15;;;;;;;61.25;29.52;;;-1.30;99.90;;;;;;4938196;29;20098;-92
2022/03/03 03:26:41;;;;;;;64.38;29.85;;;-1.30;99.90;;;;;;4922127;28;20058;-92
2022/03/03 03:29:06;;;;;;;58.47;28.48;;;-1.30;99.90;;;;;;4942192;29;20079;-92
2022/03/03 03:31:32;;;;;;;61.58;30.05;;;-1.20;99.90;;;;;;4926049;29;20062;-92
2022/03/03 03:33:58;;;;;;;60.20;28.75;;;-1.20;99.90;;;;;;4942172;29;20078;-93
2022/03/03 03:36:24;;;;;;;57.25;28.60;;;-1.20;99.90;;;;;;4926079;29;20074;-92
2022/03/03 03:38:49;;;;;;;59.67;28.15;;;-1.20;99.90;;;;;;4925821;29;20134;-92
2022/03/03 03:41:15;;;;;;;58.08;27.98;;;-1.20;99.90;;;;;;4941907;29;20058;-93
2022/03/03 03:43:41;;;;;;;57.53;28.20;;;-1.10;99.90;;;;;;4926110;29;20039;-93
2022/03/03 03:46:06;;;;;;;57.67;27.63;;;-0.90;99.90;;;;;;4942024;29;20047;-92
2022/03/03 03:48:32;;;;;;;53.22;27.38;;;-1.10;99.90;;;;;;4942068;29;20414;-92
2022/03/03 03:50:58;;;;;;;52.13;26.15;;;-1.10;99.90;;;;;;4942109;29;20063;-92
2022/03/03 03:53:24;;;;;;;54.72;27.27;;;-1.20;99.90;;;;;;4941860;29;20403;-92
2022/03/03 03:55:50;;;;;;;54.70;27.90;;;-1.10;99.90;;;;;;4925570;29;20057;-92
2022/03/03 03:58:16;;;;;;;53.65;26.65;;;-1.10;99.90;;;;;;4941663;29;20110;-93
2022/03/03 04:00:42;;;;;;;49.85;25.85;;;-1.10;99.90;;;;;;4926156;29;20483;-92
2022/03/03 04:03:08;;;;;;;52.08;25.65;;;-1.00;99.90;;;;;;4925958;29;20143;-92
2022/03/03 04:05:33;;;;;;;51.70;24.75;;;-1.00;99.90;;;;;;4925664;29;20057;-92
2022/03/03 04:07:59;;;;;;;49.35;25.50;;;-1.10;99.90;;;;;;4941490;29;20051;-92
2022/03/03 04:10:25;;;;;;;49.50;26.27;;;-1.10;99.90;;;;;;4941467;29;20040;-92
2022/03/03 04:12:51;;;;;;;51.13;24.30;;;-1.10;99.90;;;;;;4925882;29;20055;-92
2022/03/03 04:15:17;;;;;;;50.28;25.25;;;-0.90;99.90;;;;;;4941523;29;20050;-91
2022/03/03 04:17:43;;;;;;;55.17;26.45;;;-1.10;99.90;;;;;;4941346;29;20081;-92
2022/03/03 04:20:09;;;;;;;47.78;24.42;;;-0.90;99.90;;;;;;4925437;29;20094;-94
2022/03/03 04:22:35;;;;;;;45.95;23.85;;;-1.10;99.90;;;;;;4925669;29;20055;-92
2022/03/03 04:25:03;;;;;;;47.50;24.20;;;-1.00;99.90;;;;;;4940735;29;20094;-93
2022/03/03 04:27:29;;;;;;;48.58;24.02;;;-1.00;99.90;;;;;;4925573;29;20536;-92
2022/03/03 04:29:55;;;;;;;44.70;23.65;;;-1.00;99.90;;;;;;4941450;29;20058;-92
2022/03/03 04:32:21;;;;;;;52.28;24.30;;;-0.90;99.90;;;;;;4941414;29;20051;-92
2022/03/03 04:34:46;;;;;;;51.97;24.77;;;-1.10;99.90;;;;;;4925658;29;20093;-92
2022/03/03 04:37:12;;;;;;;45.88;23.63;;;-1.10;99.90;;;;;;4925022;29;20416;-92
2022/03/03 04:39:38;;;;;;;48.63;24.80;;;-1.10;99.90;;;;;;4924335;29;20611;-92
2022/03/03 04:42:04;;;;;;;48.17;25.33;;;-0.50;99.90;;;;;;4940707;29;20047;-92
2022/03/03 04:44:29;;;;;;;47.47;23.95;;;-1.00;99.90;;;;;;4940461;29;20050;-92
2022/03/03 04:46:55;;;;;;;46.28;24.42;;;-0.80;99.90;;;;;;4925089;29;20046;-93
2022/03/03 04:49:21;;;;;;;48.25;24.85;;;-0.70;99.90;;;;;;4940638;29;20051;-92
2022/03/03 04:51:46;;;;;;;52.88;25.08;;;-0.90;99.90;;;;;;4924698;29;20537;-92
2022/03/03 04:54:12;;;;;;;47.67;24.23;;;-0.80;99.90;;;;;;4940627;29;20502;-94
2022/03/03 04:56:39;;;;;;;47.63;25.05;;;-0.70;99.90;;;;;;4924675;29;20051;-92
2022/03/03 04:59:06;;;;;;;49.28;25.05;;;-0.60;99.90;;;;;;4925051;29;20102;-92
2022/03/03 05:01:31;;;;;;;47.15;25.63;;;-0.80;99.90;;;;;;4924670;29;20090;-92
2022/03/03 05:03:57;;;;;;;55.67;26.15;;;-0.80;99.90;;;;;;4924872;29;20103;-91
2022/03/03 05:06:23;;;;;;;49.60;25.73;;;-0.80;99.90;;;;;;4924818;29;20074;-93
2022/03/03 05:08:49;;;;;;;49.20;24.98;;;-0.20;99.90;;;;;;4924227;29;20403;-93
2022/03/03 05:11:15;;;;;;;45.65;24.65;;;-0.80;99.90;;;;;;4940423;29;20178;-93
2022/03/03 05:13:41;;;;;;;51.47;25.30;;;-0.80;99.90;;;;;;4924865;29;20058;-93
2022/03/03 05:16:08;;;;;;;46.28;23.75;;;-0.80;99.90;;;;;;4924752;29;20051;-92
2022/03/03 05:18:33;;;;;;;46.05;24.88;;;-0.90;99.90;;;;;;4924803;29;20410;-93
2022/03/03 05:21:00;;;;;;;42.75;23.05;;;-0.90;99.90;;;;;;4924972;29;20054;-93
2022/03/03 05:23:25;;;;;;;46.28;22.95;;;-0.70;99.90;;;;;;4940819;29;20407;-93
2022/03/03 05:25:51;;;;;;;44.90;23.17;;;-0.60;99.90;;;;;;4940466;29;20047;-93
2022/03/03 05:28:17;;;;;;;44.55;23.50;;;-0.90;99.90;;;;;;4923929;29;20479;-92
2022/03/03 05:30:42;;;;;;;43.78;23.08;;;-0.80;99.90;;;;;;4924477;29;20047;-92
2022/03/03 05:33:08;;;;;;;45.55;24.55;;;-1.00;99.90;;;;;;4923938;29;20043;-92
2022/03/03 05:35:34;;;;;;;41.45;22.05;;;-0.70;99.90;;;;;;4940265;29;20051;-92
2022/03/03 05:38:00;;;;;;;46.35;23.65;;;-0.70;99.90;;;;;;4923911;29;20558;-90
2022/03/03 05:40:26;;;;;;;46.30;24.20;;;-0.90;99.90;;;;;;4940159;29;20376;-92
2022/03/03 05:42:52;;;;;;;42.33;22.80;;;-0.90;99.90;;;;;;4923947;29;20086;-94
2022/03/03 05:45:18;;;;;;;47.67;22.92;;;-1.00;99.90;;;;;;4939644;29;20151;-93
2022/03/03 05:47:45;;;;;;;45.80;23.65;;;-1.00;99.90;;;;;;4948971;28;20129;-92
2022/03/03 05:50:11;;;;;;;48.33;24.00;;;-0.90;99.90;;;;;;4942578;28;20137;-92
2022/03/03 05:52:37;;;;;;;42.17;23.17;;;-0.90;99.90;;;;;;4942432;28;20094;-93
2022/03/03 05:55:04;;;;;;;44.65;22.88;;;-0.90;99.90;;;;;;4959078;28;20119;-92
2022/03/03 05:57:38;;;;;;;44.70;23.52;;;-0.90;99.90;;;;;;4958356;28;20050;-93
2022/03/03 06:00:12;;;;;;;43.92;21.90;;;-0.90;99.90;;;;;;4943007;28;20042;-93
2022/03/03 06:02:53;;;;;;;39.80;22.42;;;-1.00;99.90;;;;;;4943049;28;20053;-93
2022/03/03 06:05:22;;;;;;;;;;;-1.00;99.90;;;;;;4942797;28;20043;-92
2022/03/03 06:07:52;;;;;;;41.78;21.83;;;-1.00;99.90;;;;;;4958100;28;19918;-91
2022/03/03 06:10:25;;;;;;;40.35;21.55;;;-1.00;99.90;;;;;;4942122;28;20058;-93
2022/03/03 06:13:23;;;;;;;39.70;22.08;;;-1.00;99.90;;;;;;4958346;28;20043;-92
2022/03/03 06:15:49;;;;;;;39.47;21.85;;;-1.00;99.90;;;;;;4942529;28;20094;-93
2022/03/03 06:18:16;;;;;;;41.45;23.02;;;-1.00;99.90;;;;;;4942551;28;20078;-93
2022/03/03 06:20:44;;;;;;;40.75;21.67;;;-0.60;99.90;;;;;;4958309;28;20129;-92
2022/03/03 06:23:09;;;;;;;42.67;22.10;;;-0.50;99.90;;;;;;4942616;28;20049;-91
2022/03/03 06:25:36;;;;;;;43.90;23.25;;;-1.00;99.90;;;;;;4958665;28;20046;-92
2022/03/03 06:28:02;;;;;;;41.45;22.80;;;-1.00;99.90;;;;;;4964638;28;20051;-92
2022/03/03 06:30:31;;;;;;;42.58;22.40;;;-1.00;99.90;;;;;;4923305;29;20130;-92
2022/03/03 06:32:56;;;;;;;41.75;21.95;;;-0.80;99.90;;;;;;4939176;29;20105;-93
2022/03/03 06:35:22;;;;;;;42.60;22.65;;;-0.90;99.90;;;;;;4922913;29;20134;-92
2022/03/03 06:37:48;;;;;;;45.75;22.98;;;-0.90;99.90;;;;;;4923026;29;20058;-92
2022/03/03 06:40:13;;;;;;;42.00;21.98;;;-0.90;99.90;;;;;;4923234;29;20055;-92
2022/03/03 06:42:39;;;;;;;43.00;21.70;;;-1.10;99.90;;;;;;4922774;29;20043;-92
2022/03/03 06:45:05;;;;;;;41.72;22.23;;;-0.90;99.90;;;;;;4939086;29;20134;-93
2022/03/03 06:47:31;;;;;;;43.47;22.48;;;-0.80;99.90;;;;;;4938667;29;20046;-93
2022/03/03 06:49:57;;;;;;;42.30;22.75;;;-0.80;99.90;;;;;;4922844;29;20051;-92
2022/03/03 06:52:26;;;;;;;40.08;22.38;;;-0.60;99.90;;;;;;4938649;29;20376;-93
2022/03/03 06:54:53;;;;;;;38.33;22.40;;;-0.70;99.90;;;;;;4938748;29;20139;-92
2022/03/03 06:57:23;;;;;;;39.85;21.88;;;-0.40;99.90;;;;;;4922657;29;20455;-92
2022/03/03 06:59:52;;;;;;;43.00;23.42;;;-0.40;99.90;;;;;;4938347;29;20046;-92
2022/03/03 07:02:18;;;;;;;39.70;22.35;;;-0.50;99.90;;;;;;4923916;29;20046;-92
2022/03/03 07:04:47;;;;;;;41.13;22.70;;;0.00;99.90;;;;;;4940703;29;20044;-92
2022/03/03 07:07:13;;;;;;;38.15;21.80;;;-0.40;99.90;;;;;;4938433;29;20065;-93
2022/03/03 07:09:41;;;;;;;38.03;21.58;;;-0.30;99.90;;;;;;4938860;29;20051;-93
2022/03/03 07:12:07;;;;;;;36.72;20.27;;;-0.20;99.90;;;;;;4923557;29;20516;-92
2022/03/03 07:14:33;;;;;;;41.85;21.83;;;-0.30;99.90;;;;;;4938481;29;20085;-93
2022/03/03 07:17:02;;;;;;;40.05;21.02;;;0.10;99.90;;;;;;4939133;29;20091;-93
2022/03/03 07:19:37;;;;;;;39.00;21.55;;;0.10;99.90;;;;;;4922619;29;20050;-92
2022/03/03 07:22:38;;;;;;;37.42;21.35;;;0.60;99.90;;;;;;4923710;29;20135;-93
2022/03/03 07:25:14;;;;;;;39.13;20.17;;;0.40;99.90;;;;;;4938354;29;20550;-93
2022/03/03 07:27:42;;;;;;;35.05;19.70;;;0.70;99.90;;;;;;4922583;29;20066;-93
2022/03/03 07:30:12;;;;;;;34.85;19.55;;;0.40;99.90;;;;;;4924000;29;20503;-92
2022/03/03 07:33:17;;;;;;;36.00;20.15;;;0.40;99.90;;;;;;4941648;29;20094;-92
2022/03/03 07:35:48;;;;;;;37.53;20.05;;;0.40;99.90;;;;;;4938895;29;20047;-91
2022/03/03 07:38:21;;;;;;;33.05;19.48;;;0.50;99.90;;;;;;4939170;29;20113;-93
2022/03/03 07:40:48;;;;;;;33.50;19.08;;;0.50;99.90;;;;;;4923239;29;20043;-92
2022/03/03 07:43:16;;;;;;;37.20;20.33;;;0.60;99.90;;;;;;4924354;29;20047;-93
2022/03/03 07:45:43;;;;;;;31.92;18.40;;;0.60;99.90;;;;;;4938578;29;20043;-92
2022/03/03 07:48:11;;;;;;;38.35;19.27;;;0.80;99.90;;;;;;4939245;29;20047;-92
2022/03/03 07:50:39;;;;;;;38.95;20.17;;;0.70;99.90;;;;;;4938282;29;20395;-92
2022/03/03 07:53:10;;;;;;;36.85;19.67;;;0.80;99.90;;;;;;4922779;29;20046;-93
2022/03/03 07:56:02;;;;;;;37.90;19.33;;;1.30;99.90;;;;;;4939125;29;20474;-92
2022/03/03 07:58:31;;;;;;;32.65;18.80;;;1.20;99.90;;;;;;4923270;29;20039;-93
2022/03/03 08:00:58;;;;;;;35.40;19.95;;;1.20;99.90;;;;;;4922972;29;20483;-92
2022/03/03 08:03:25;;;;;;;31.25;19.30;;;1.10;99.90;;;;;;4922778;29;20043;-94
2022/03/03 08:05:55;;;;;;;31.98;18.38;;;1.10;99.90;;;;;;4938131;29;20368;-93
2022/03/03 08:08:24;;;;;;;39.05;20.23;;;1.20;99.90;;;;;;4938878;29;20051;-93
2022/03/03 08:11:02;;;;;;;34.45;19.70;;;1.70;99.90;;;;;;4938332;29;20422;-92
2022/03/03 08:13:29;;;;;;;32.30;19.13;;;1.40;99.90;;;;;;4922706;29;20090;-93
2022/03/03 08:15:56;;;;;;;31.23;18.75;;;1.50;99.90;;;;;;4925752;29;20051;-94
2022/03/03 08:18:26;;;;;;;33.05;18.80;;;1.60;99.90;;;;;;4925682;29;20065;-92
2022/03/03 08:20:53;;;;;;;33.30;19.07;;;1.70;99.90;;;;;;4942202;29;20035;-91
2022/03/03 08:23:20;;;;;;;32.45;18.48;;;1.80;99.90;;;;;;4941748;29;20039;-92
2022/03/03 08:25:47;;;;;;;34.25;19.25;;;2.10;99.90;;;;;;4941780;29;20051;-93
2022/03/03 08:28:13;;;;;;;31.70;17.73;;;2.40;99.90;;;;;;4925647;29;20055;-92
2022/03/03 08:30:41;;;;;;;34.58;18.70;;;2.20;99.90;;;;;;4941571;29;20101;-92
2022/03/03 08:33:19;;;;;;;32.65;19.27;;;2.60;99.90;;;;;;4925489;29;20495;-92
2022/03/03 08:35:52;;;;;;;33.90;18.67;;;2.50;99.90;;;;;;4926082;29;20047;-93
2022/03/03 08:38:31;;;;;;;36.42;19.75;;;2.00;99.90;;;;;;4926377;29;20043;-92
2022/03/03 08:41:00;;;;;;;34.15;18.42;;;2.50;99.90;;;;;;4925319;29;20053;-93
2022/03/03 08:43:28;;;;;;;33.15;18.40;;;2.80;99.90;;;;;;4925190;29;20427;-92
2022/03/03 08:46:02;;;;;;;29.75;18.38;;;2.70;99.90;;;;;;4941952;29;20051;-92
2022/03/03 08:48:30;;;;;;;30.23;17.55;;;3.10;99.90;;;;;;4941472;29;20062;-92
2022/03/03 08:50:57;;;;;;;34.03;17.92;;;3.10;99.90;;;;;;4925251;29;20380;-92
2022/03/03 08:53:26;;;;;;;28.45;18.25;;;3.20;99.90;;;;;;4941396;29;20038;-93
2022/03/03 08:55:54;;;;;;;31.33;18.90;;;3.30;99.90;;;;;;4925667;29;20130;-94
2022/03/03 08:58:21;;;;;;;31.35;18.70;;;3.40;99.90;;;;;;4925142;29;20130;-93
2022/03/03 09:00:48;;;;;;;32.33;19.00;;;3.80;99.90;;;;;;4925689;29;20035;-92
2022/03/03 09:03:21;;;;;;;26.50;17.38;;;4.00;99.90;;;;;;4925149;29;20196;-93
2022/03/03 09:05:51;;;;;;;29.77;17.38;;;3.80;99.90;;;;;;4941743;29;20086;-92
2022/03/03 09:08:17;;;;;;;29.87;17.23;;;4.40;99.90;;;;;;4926323;29;20051;-93
2022/03/03 09:10:43;;;;;;;32.40;18.45;;;4.30;99.90;;;;;;4941979;29;20047;-92
2022/03/03 09:13:09;;;;;;;27.92;17.13;;;4.40;99.90;;;;;;4925201;29;20035;-93
2022/03/03 09:15:36;;;;;;;32.72;18.27;;;4.50;99.90;;;;;;4925916;29;20438;-93
2022/03/03 09:18:05;;;;;;;28.73;17.67;;;4.50;99.90;;;;;;4926061;29;20398;-93
2022/03/03 09:20:32;;;;;;;29.23;18.00;;;4.60;99.90;;;;;;4926247;29;20059;-92
2022/03/03 09:22:58;;;;;;;27.45;17.17;;;5.10;99.90;;;;;;4942434;29;20051;-93
2022/03/03 09:25:24;;;;;;;26.60;17.13;;;5.20;99.90;;;;;;4931053;29;20051;-92
2022/03/03 09:27:50;;;;;;;26.08;16.67;;;6.40;99.90;;;;;;4948848;29;20067;-93
2022/03/03 09:30:18;;;;;;;25.80;15.18;;;8.00;99.90;;;;;;4933973;29;20047;-93
2022/03/03 09:32:44;;;;;;;24.48;16.17;;;9.50;99.90;;;;;;4951157;29;20075;-92
2022/03/03 09:35:11;;;;;;;26.10;16.40;;;10.40;99.90;;;;;;4945079;29;20047;-94
2022/03/03 09:37:37;;;;;;;20.70;15.70;;;11.40;99.90;;;;;;4940437;29;20514;-94
2022/03/03 09:40:06;;;;;;;27.23;17.35;;;12.30;98.60;;;;;;4940124;29;20120;-93
2022/03/03 09:42:34;;;;;;;26.98;15.70;;;13.10;95.20;;;;;;4924459;29;20379;-94
2022/03/03 09:45:10;;;;;;;21.75;15.98;;;13.70;90.50;;;;;;4924846;29;20042;-93
2022/03/03 09:47:38;;;;;;;21.05;15.38;;;14.20;72.50;;;;;;4940336;29;20039;-94
2022/03/03 09:50:07;;;;;;;23.85;15.27;;;14.60;77.60;;;;;;4939937;29;20130;-93
2022/03/03 09:52:33;;;;;;;21.98;15.45;;;14.90;70.10;;;;;;4925188;29;20391;-91
2022/03/03 09:54:59;;;;;;;23.50;16.00;;;15.20;68.80;;;;;;4926239;29;20380;-92
2022/03/03 09:57:26;;;;;;;20.50;15.32;;;15.40;66.50;;;;;;4924358;29;20055;-92
2022/03/03 09:59:56;;;;;;;18.27;14.20;;;15.80;65.70;;;;;;4924217;29;20134;-92
2022/03/03 10:02:22;;;;;;;22.35;14.75;;;16.20;61.90;;;;;;4924767;29;20438;-92
2022/03/03 10:04:49;;;;;;;20.40;15.52;;;16.60;60.00;;;;;;4925068;29;20043;-93
2022/03/03 10:07:15;;;;;;;21.92;14.80;;;16.80;57.40;;;;;;4940195;29;20046;-93
2022/03/03 10:12:30;;;;;;;19.80;14.85;;;17.20;54.20;;;;;;4940689;29;20502;-93
2022/03/03 10:14:59;;;;;;;19.50;15.23;;;17.20;53.60;;;;;;4924410;29;20130;-95
2022/03/03 10:17:37;;;;;;;18.27;15.18;;;17.20;51.80;;;;;;4924061;29;20050;-94
2022/03/03 10:20:06;;;;;;;18.48;15.23;;;17.30;50.80;;;;;;4927140;29;20051;-93
2022/03/03 10:22:57;;;;;;;19.80;15.73;;;17.40;50.40;;;;;;4946109;28;20098;-93
2022/03/03 10:28:22;;;;;;;18.92;15.40;;;17.90;49.60;;;;;;5045528;23;20056;-95
2022/03/03 10:31:05;;;;;;;20.25;15.43;;;18.10;47.70;;;;;;4907485;29;20131;-94
2022/03/03 10:33:45;;;;;;;30.70;15.35;;;18.30;47.50;;;;;;4924044;29;20071;-95
2022/03/03 10:36:16;;;;;;;18.67;15.27;;;18.60;45.60;;;;;;4907315;29;20099;-93
2022/03/03 10:38:53;;;;;;;20.13;14.52;;;18.60;46.20;;;;;;4906903;29;20035;-93
2022/03/03 10:41:41;;;;;;;20.30;15.30;;;18.70;45.90;;;;;;4928421;29;20079;-94
2022/03/03 10:44:08;;;;;;;18.75;14.07;;;18.90;44.60;;;;;;4929039;29;20047;-95
2022/03/03 10:46:35;;;;;;;20.30;14.45;;;19.00;44.90;;;;;;4913711;29;20039;-94
2022/03/03 10:49:22;;;;;;;18.08;13.63;;;19.20;44.10;;;;;;4929881;29;20079;-95
2022/03/03 10:51:48;;;;;;;19.05;14.38;;;19.30;42.60;;;;;;4928999;29;20048;-94
2022/03/03 10:54:14;;;;;;;16.52;13.90;;;19.60;43.40;;;;;;4913887;29;20039;-94
2022/03/03 10:56:47;;;;;;;20.65;14.85;;;19.90;42.50;;;;;;4934127;29;20368;-93
2022/03/03 10:59:22;;;;;;;18.33;14.15;;;20.00;40.50;;;;;;4913558;29;20046;-94
2022/03/03 11:01:50;;;;;;;18.42;14.13;;;19.90;41.20;;;;;;4928076;29;20052;-95
2022/03/03 11:04:20;;;;;;;18.42;14.25;;;20.00;41.50;;;;;;4912876;29;20111;-95
2022/03/03 11:06:53;;;;;;;19.33;14.90;;;20.30;41.70;;;;;;4908542;29;20044;-94
2022/03/03 11:09:19;;;;;;;19.58;14.55;;;20.60;41.90;;;;;;4925964;29;20419;-95
2022/03/03 11:11:46;;;;;;;17.58;14.43;;;20.90;40.50;;;;;;4922917;29;20036;-94
2022/03/03 11:14:12;;;;;;;18.60;14.50;;;21.10;40.00;;;;;;4921223;29;20046;-93
2022/03/03 11:16:41;;;;;;;18.70;14.85;;;21.20;39.90;;;;;;4920786;29;20075;-95
2022/03/03 11:19:09;;;;;;;18.13;13.35;;;21.40;39.30;;;;;;4904620;29;20048;-94
2022/03/03 11:21:39;;;;;;;18.10;13.48;;;21.50;38.80;;;;;;4920633;29;20059;-95
2022/03/03 11:24:05;;;;;;;16.33;12.88;;;21.70;38.30;;;;;;4920565;29;20088;-93
2022/03/03 11:26:40;;;;;;;15.90;12.52;;;21.80;38.50;;;;;;4920030;29;20075;-93
2022/03/03 11:29:11;;;;;;;16.63;12.77;;;21.80;38.00;;;;;;4905085;29;20044;-94
2022/03/03 11:31:38;;;;;;;17.52;12.93;;;21.90;37.60;;;;;;4919779;29;20083;-94
2022/03/03 11:34:43;;;;;;;19.23;13.15;;;22.00;37.10;;;;;;4921028;29;20476;-96
2022/03/03 11:37:23;;;;;;;16.25;12.55;;;22.20;37.00;;;;;;4904384;29;20051;-94
2022/03/03 11:39:59;;;;;;;18.70;13.65;;;22.50;36.50;;;;;;4919999;29;20094;-91
2022/03/03 11:42:27;;;;;;;17.38;12.75;;;22.40;36.40;;;;;;4906917;29;20039;-96
2022/03/03 11:45:00;;;;;;;14.50;11.70;;;22.20;36.90;;;;;;4923010;29;20182;-95
2022/03/03 11:47:26;;;;;;;14.43;12.15;;;22.10;36.60;;;;;;4922179;29;20055;-96
2022/03/03 11:50:09;;;;;;;16.73;12.65;;;22.00;36.00;;;;;;4923980;29;20071;-95
2022/03/03 11:52:37;;;;;;;16.33;12.48;;;22.00;35.80;;;;;;4911758;29;20050;-95
2022/03/03 11:55:25;;;;;;;14.75;12.32;;;22.10;36.40;;;;;;4925652;29;20427;-96
2022/03/03 11:58:14;;;;;;;15.02;11.88;;;22.30;35.10;;;;;;4907530;29;20067;-94
2022/03/03 12:00:44;;;;;;;15.20;12.02;;;22.10;35.00;;;;;;4908521;29;20090;-95
2022/03/03 12:03:19;;;;;;;13.50;10.88;;;21.70;36.50;;;;;;4909652;29;20056;-96
2022/03/03 12:06:14;;;;;;;13.30;10.48;;;21.60;37.10;;;;;;4927485;29;20055;-95
2022/03/03 12:08:41;;;;;;;13.02;10.77;;;21.40;35.80;;;;;;4911277;29;20040;-94
2022/03/03 12:11:15;;;;;;;15.38;11.80;;;21.40;37.20;;;;;;4910394;29;20035;-94
2022/03/03 12:14:00;;;;;;;15.45;10.82;;;21.60;37.00;;;;;;4926917;29;20099;-95
2022/03/03 12:16:33;;;;;;;17.98;12.32;;;22.10;36.80;;;;;;4910555;29;20423;-95
2022/03/03 12:19:08;;;;;;;15.07;11.98;;;22.60;36.30;;;;;;4910201;29;20069;-96
2022/03/03 12:21:42;;;;;;;16.70;12.20;;;22.90;35.80;;;;;;4909205;29;20084;-94
2022/03/03 12:24:14;;;;;;;15.00;10.88;;;22.80;35.60;;;;;;4924239;29;20055;-94
2022/03/03 12:26:55;;;;;;;18.08;11.85;;;23.00;35.60;;;;;;4908619;29;20071;-95
2022/03/03 12:29:30;;;;;;;;;;;23.20;35.60;;;;;;4907671;29;20392;-94
2022/03/03 12:31:56;;;;;;;12.60;10.07;;;23.40;32.90;;;;;;4908864;29;19980;-96
2022/03/03 12:34:23;;;;;;;11.63;10.30;;;23.10;35.90;;;;;;4939311;29;20115;-93
2022/03/03 12:36:54;;;;;;;14.52;10.63;;;23.10;36.10;;;;;;4923210;29;20091;-94
2022/03/03 12:39:20;;;;;;;14.45;11.48;;;22.90;35.30;;;;;;4924244;29;20051;-95
2022/03/03 12:41:46;;;;;;;13.85;10.73;;;22.90;35.90;;;;;;4927164;29;20372;-95
2022/03/03 12:44:14;;;;;;;14.57;10.55;;;23.10;35.90;;;;;;4912319;29;20067;-94
2022/03/03 12:46:44;;;;;;;12.55;10.75;;;23.10;35.60;;;;;;4924262;29;20051;-94